createdAt,value
2023-05-21T00:03:36.695Z,38.51
2023-05-21T00:08:38.702Z,38.50
2023-05-21T00:13:40.751Z,38.34
2023-05-21T00:18:43.014Z,38.43
2023-05-21T00:23:45.781Z,38.29
2023-05-21T00:28:48.230Z,38.25
2023-05-21T00:33:50.198Z,38.43
2023-05-21T00:38:52.507Z,38.46
2023-05-21T00:43:54.632Z,38.52
2023-05-21T00:48:58.451Z,38.51
2023-05-21T00:54:01.446Z,38.14
2023-05-21T00:59:05.963Z,38.35
2023-05-21T01:04:08.095Z,38.33
2023-05-21T01:09:10.270Z,38.33
2023-05-21T01:14:15.242Z,38.37
2023-05-21T01:19:24.831Z,38.25
2023-05-21T01:24:26.912Z,38.29
2023-05-21T01:29:29.337Z,38.17
2023-05-21T01:34:40.563Z,38.28
2023-05-21T01:39:48.169Z,38.04
2023-05-21T01:44:55.472Z,38.48
2023-05-21T01:49:57.850Z,38.04
2023-05-21T01:55:00.860Z,38.40
2023-05-21T02:00:02.917Z,38.27
2023-05-21T02:05:05.486Z,38.26
2023-05-21T02:10:08.307Z,38.34
2023-05-21T02:15:10.489Z,38.23
2023-05-21T02:20:13.316Z,38.18
2023-05-21T02:25:18.649Z,38.20
2023-05-21T02:30:21.174Z,38.45
2023-05-21T02:35:23.229Z,38.25
2023-05-21T02:40:25.732Z,38.23
2023-05-21T02:45:29.205Z,38.24
2023-05-21T02:50:31.455Z,38.17
2023-05-21T02:55:33.851Z,38.27
2023-05-21T03:00:35.939Z,38.16
2023-05-21T03:05:37.966Z,38.22
2023-05-21T03:10:40.395Z,38.25
2023-05-21T03:15:44.345Z,38.32
2023-05-21T03:20:46.549Z,38.49
2023-05-21T03:25:48.990Z,38.12
2023-05-21T03:30:51.512Z,38.46
2023-05-21T03:35:53.704Z,38.13
2023-05-21T03:40:55.782Z,38.47
2023-05-21T03:45:58.099Z,38.28
2023-05-21T03:51:00.349Z,38.30
2023-05-21T03:56:02.400Z,38.14
2023-05-21T04:01:05.149Z,38.43
2023-05-21T04:06:10.654Z,38.39
2023-05-21T04:11:13.015Z,38.54
2023-05-21T04:16:19.618Z,38.18
2023-05-21T04:21:22.192Z,38.24
2023-05-21T04:26:25.720Z,38.25
2023-05-21T04:31:27.984Z,38.31
2023-05-21T04:36:30.473Z,38.31
2023-05-21T04:41:34.995Z,38.20
2023-05-21T04:46:40.341Z,38.18
2023-05-21T04:51:43.670Z,38.31
2023-05-21T04:56:49.874Z,38.32
2023-05-21T05:01:52.982Z,38.24
2023-05-21T05:06:55.960Z,38.25
2023-05-21T05:11:58.027Z,38.58
2023-05-21T05:17:02.880Z,38.47
2023-05-21T05:22:06.233Z,38.36
2023-05-21T05:27:12.629Z,38.45
2023-05-21T05:32:15.732Z,38.44
2023-05-21T05:37:17.694Z,38.40
2023-05-21T05:42:24.419Z,38.42
2023-05-21T05:47:26.829Z,38.27
2023-05-21T05:52:29.060Z,38.46
2023-05-21T05:57:33.167Z,38.56
2023-05-21T06:02:44.455Z,38.64
2023-05-21T06:07:47.594Z,38.49
2023-05-21T06:12:50.553Z,38.62
2023-05-21T06:17:54.189Z,38.27
2023-05-21T06:22:56.350Z,38.60
2023-05-21T06:28:02.947Z,38.29
2023-05-21T06:33:12.005Z,38.51
2023-05-21T06:38:14.272Z,38.62
2023-05-21T06:43:16.503Z,38.64
2023-05-21T06:48:19.069Z,38.49
2023-05-21T06:53:20.935Z,38.63
2023-05-21T06:58:23.902Z,38.55
2023-05-21T07:03:26.970Z,38.48
2023-05-21T07:08:30.727Z,38.46
2023-05-21T07:13:33.164Z,38.54
2023-05-21T07:18:35.213Z,38.85
2023-05-21T07:23:40.815Z,38.80
2023-05-21T07:28:43.205Z,38.83
2023-05-21T07:33:45.534Z,38.71
2023-05-21T07:38:48.911Z,39.10
2023-05-21T07:43:52.593Z,39.10
2023-05-21T07:48:55.372Z,38.95
2023-05-21T07:53:59.320Z,38.83
2023-05-21T07:59:03.306Z,40.64
2023-05-21T08:04:08.572Z,40.89
2023-05-21T08:09:11.868Z,40.65
2023-05-21T08:14:20.038Z,41.12
2023-05-21T08:19:24.794Z,41.18
2023-05-21T08:24:26.933Z,40.99
2023-05-21T08:29:30.386Z,41.28
2023-05-21T08:34:34.758Z,41.17
2023-05-21T08:39:37.167Z,41.17
2023-05-21T08:44:45.090Z,40.78
2023-05-21T08:49:49.591Z,40.84
2023-05-21T08:54:52.742Z,40.67
2023-05-21T08:59:55.819Z,40.90
2023-05-21T09:05:01.220Z,41.28
2023-05-21T09:10:16.764Z,41.48
2023-05-21T09:15:19.491Z,41.12
2023-05-21T09:25:48.105Z,41.12
2023-05-21T09:30:55.512Z,41.09
2023-05-21T09:36:00.641Z,41.77
2023-05-21T09:41:08.747Z,41.70
2023-05-21T09:46:13.106Z,41.29
2023-05-21T09:51:31.508Z,41.73
2023-05-21T09:56:36.680Z,42.10
2023-05-21T10:01:42.455Z,41.96
2023-05-21T10:06:49.991Z,42.26
2023-05-21T10:12:03.884Z,42.13
2023-05-21T10:17:14.112Z,42.71
2023-05-21T10:22:24.780Z,42.07
2023-05-21T10:27:32.495Z,42.41
2023-05-21T10:32:37.163Z,42.30
2023-05-21T10:37:45.170Z,42.09
2023-05-21T10:43:31.300Z,41.95
2023-05-21T10:48:58.996Z,42.29
2023-05-21T10:54:56.309Z,42.10
2023-05-21T11:00:00.793Z,42.13
2023-05-21T11:10:42.681Z,42.50
2023-05-21T11:16:08.138Z,42.68
2023-05-21T11:21:15.637Z,42.64
2023-05-21T11:26:25.460Z,42.55
2023-05-21T11:31:43.221Z,42.72
2023-05-21T11:36:47.297Z,42.99
2023-05-21T11:42:06.428Z,43.15
2023-05-21T11:47:33.523Z,42.62
2023-05-21T11:52:39.785Z,42.35
2023-05-21T12:08:58.661Z,42.69
2023-05-21T12:14:05.726Z,43.43
2023-05-21T12:19:15.458Z,43.54
2023-05-21T12:24:25.069Z,43.57
2023-05-21T12:29:44.344Z,43.80
2023-05-21T12:34:54.972Z,44.06
2023-05-21T12:40:06.826Z,44.47
2023-05-21T12:45:15.596Z,43.91
2023-05-21T12:55:49.620Z,43.10
2023-05-21T13:00:57.943Z,43.76
2023-05-21T13:06:07.344Z,44.38
2023-05-21T13:11:10.948Z,44.39
2023-05-21T13:21:47.864Z,44.48
2023-05-21T13:27:01.839Z,44.36
2023-05-21T13:32:11.396Z,44.53
2023-05-21T13:37:14.966Z,44.60
2023-05-21T13:42:17.253Z,44.14
2023-05-21T13:47:36.845Z,44.67
2023-05-21T13:52:50.532Z,44.57
2023-05-21T13:57:52.726Z,45.06
2023-05-21T14:02:55.285Z,44.85
2023-05-21T14:08:04.545Z,45.06
2023-05-21T14:13:19.057Z,45.01
2023-05-21T14:18:22.480Z,44.74
2023-05-21T14:23:38.884Z,44.48
2023-05-21T14:28:41.553Z,44.12
2023-05-21T14:33:46.065Z,44.09
2023-05-21T14:38:53.468Z,43.95
2023-05-21T14:44:00.150Z,43.88
2023-05-21T14:49:05.726Z,43.80
2023-05-21T14:54:12.069Z,44.53
2023-05-21T14:59:22.036Z,44.82
2023-05-21T15:04:24.695Z,44.34
2023-05-21T15:09:29.164Z,43.68
2023-05-21T15:14:41.602Z,45.95
2023-05-21T15:19:44.035Z,44.98
2023-05-21T15:24:47.824Z,46.21
2023-05-21T15:29:52.014Z,46.18
2023-05-21T15:34:56.665Z,46.48
2023-05-21T15:39:59.306Z,47.04
2023-05-21T15:45:01.600Z,47.44
2023-05-21T15:50:05.093Z,47.25
2023-05-21T15:55:07.503Z,46.70
2023-05-21T16:00:10.840Z,45.98
2023-05-21T16:05:13.052Z,45.68
2023-05-21T16:10:16.286Z,45.93
2023-05-21T16:15:19.990Z,45.83
2023-05-21T16:20:23.553Z,45.94
2023-05-21T16:25:25.977Z,46.26
2023-05-21T16:30:28.370Z,46.21
2023-05-21T16:35:32.381Z,46.41
2023-05-21T16:40:34.494Z,46.65
2023-05-21T16:45:43.981Z,46.76
2023-05-21T16:50:47.618Z,47.33
2023-05-21T16:55:49.858Z,47.38
2023-05-21T17:00:51.998Z,46.97
2023-05-21T17:05:55.924Z,46.24
2023-05-21T17:10:59.692Z,46.20
2023-05-21T17:16:03.829Z,47.00
2023-05-21T17:21:06.128Z,46.17
2023-05-21T17:26:23.026Z,45.95
2023-05-21T17:31:25.609Z,45.52
2023-05-21T17:36:32.598Z,45.44
2023-05-21T17:41:42.109Z,45.01
2023-05-21T17:46:47.778Z,44.67
2023-05-21T17:51:55.547Z,44.64
2023-05-21T17:56:58.168Z,44.87
2023-05-21T18:02:02.240Z,44.58
2023-05-21T18:07:04.807Z,44.67
2023-05-21T18:12:10.600Z,44.24
2023-05-21T18:17:13.906Z,44.42
2023-05-21T18:22:20.247Z,44.94
2023-05-21T18:27:24.483Z,44.67
2023-05-21T18:32:27.211Z,44.85
2023-05-21T18:37:37.995Z,44.75
2023-05-21T18:42:47.379Z,44.59
2023-05-21T18:47:50.303Z,44.60
2023-05-21T18:53:06.839Z,44.57
2023-05-21T18:58:10.992Z,44.48
2023-05-21T19:03:13.334Z,44.58
2023-05-21T19:08:17.620Z,44.50
2023-05-21T19:13:20.123Z,44.38
2023-05-21T19:18:26.690Z,44.13
2023-05-21T19:23:29.535Z,44.03
2023-05-21T19:28:34.771Z,43.93
2023-05-21T19:33:37.058Z,44.13
2023-05-21T19:38:41.594Z,43.96
2023-05-21T19:43:46.166Z,43.96
2023-05-21T19:48:51.178Z,44.00
2023-05-21T19:53:53.980Z,43.91
2023-05-21T19:58:56.945Z,43.84
2023-05-21T20:04:01.107Z,43.94
2023-05-21T20:09:05.366Z,43.62
2023-05-21T20:14:07.733Z,43.84
2023-05-21T20:19:11.169Z,43.68
2023-05-21T20:24:13.918Z,43.88
2023-05-21T20:29:16.507Z,43.41
2023-05-21T20:34:22.045Z,43.67
2023-05-21T20:39:29.861Z,43.39
2023-05-21T20:44:34.569Z,44.14
2023-05-21T20:49:42.828Z,44.88
2023-05-21T20:54:47.164Z,45.30
2023-05-21T20:59:53.585Z,45.45
2023-05-21T21:04:57.123Z,45.89
2023-05-21T21:10:00.599Z,45.35
2023-05-21T21:15:04.298Z,45.74
2023-05-21T21:20:07.960Z,45.36
2023-05-21T21:25:11.929Z,45.29
2023-05-21T21:30:14.484Z,45.20
2023-05-21T21:35:17.642Z,44.88
2023-05-21T21:40:19.917Z,44.70
2023-05-21T21:45:22.611Z,44.78
2023-05-21T21:50:25.192Z,44.31
2023-05-21T21:55:27.804Z,44.18
2023-05-21T22:00:30.048Z,44.20
2023-05-21T22:05:33.012Z,43.99
2023-05-21T22:10:38.570Z,44.21
2023-05-21T22:15:41.137Z,44.02
2023-05-21T22:20:44.480Z,43.89
2023-05-21T22:25:48.540Z,43.72
2023-05-21T22:30:50.607Z,43.78
2023-05-21T22:35:55.660Z,43.76
2023-05-21T22:40:59.392Z,43.81
2023-05-21T22:46:02.295Z,43.55
2023-05-21T22:51:05.118Z,43.29
2023-05-21T22:56:07.974Z,43.54
2023-05-21T23:01:09.952Z,43.48
2023-05-21T23:06:12.502Z,43.36
2023-05-21T23:11:16.188Z,43.43
2023-05-21T23:16:23.888Z,43.40
2023-05-21T23:21:30.582Z,43.29
2023-05-21T23:26:32.907Z,43.34
2023-05-21T23:31:36.457Z,43.32
2023-05-21T23:36:38.978Z,43.26
2023-05-21T23:41:42.444Z,43.01
2023-05-21T23:46:45.967Z,43.19
2023-05-21T23:51:51.091Z,43.17
2023-05-21T23:56:53.466Z,43.27
